sensor_id;sensor_type;location;lat;lon;timestamp;pressure;altitude;pressure_sealevel;temperature;humidity
22775;BME280;11554;51.106;3.684;2022-09-21T00:00:00;102668.1;;;7.59;100.0
22775;BME280;11554;51.106;3.684;2022-09-21T00:05:00;102668.87;;;7.51;100.0
22775;BME280;11554;51.106;3.684;2022-09-21T00:10:00;102667.93000000001;;;7.37;100.0
22775;BME280;11554;51.106;3.684;2022-09-21T00:15:00;102668.02;;;7.39;100.0
22775;BME280;11554;51.106;3.684;2022-09-21T00:20:00;102668.90000000001;;;7.36;100.0
22775;BME280;11554;51.106;3.684;2022-09-21T00:25:00;102664.31;;;7.43;100.0
22775;BME280;11554;51.106;3.684;2022-09-21T00:30:00;102664.18000000001;;;7.34;100.0
22775;BME280;11554;51.106;3.684;2022-09-21T00:35:00;102664.11;;;7.24;100.0
22775;BME280;11554;51.106;3.684;2022-09-21T00:40:00;102667.7;;;7.16;100.0
22775;BME280;11554;51.106;3.684;2022-09-21T00:45:00;102667.95999999999;;;7.19;100.0
22775;BME280;11554;51.106;3.684;2022-09-21T00:50:01;102666.55;;;7.11;100.0
22775;BME280;11554;51.106;3.684;2022-09-21T00:55:02;102664.31;;;6.98;100.0
22775;BME280;11554;51.106;3.684;2022-09-21T01:00:03;102661.57;;;6.92;100.0
22775;BME280;11554;51.106;3.684;2022-09-21T01:05:00;102662.62;;;6.83;100.0
22775;BME280;11554;51.106;3.684;2022-09-21T01:10:00;102663.1;;;6.76;100.0
22775;BME280;11554;51.106;3.684;2022-09-21T01:15:04;102657.69;;;6.70;100.0
22775;BME280;11554;51.106;3.684;2022-09-21T01:20:08;102655.97;;;6.60;100.0
22775;BME280;11554;51.106;3.684;2022-09-21T01:25:03;102653.06;;;6.48;100.0
22775;BME280;11554;51.106;3.684;2022-09-21T01:30:01;102651.34000000001;;;6.41;100.0
22775;BME280;11554;51.106;3.684;2022-09-21T01:35:01;102654.59000000001;;;6.40;100.0
22775;BME280;11554;51.106;3.684;2022-09-21T01:40:01;102647.21999999999;;;6.32;100.0
22775;BME280;11554;51.106;3.684;2022-09-21T01:45:00;102651.45;;;6.26;100.0
22775;BME280;11554;51.106;3.684;2022-09-21T01:50:00;102653.93999999999;;;6.19;100.0
22775;BME280;11554;51.106;3.684;2022-09-21T01:55:01;102654.31000000001;;;6.16;100.0
22775;BME280;11554;51.106;3.684;2022-09-21T02:00:00;102655.88;;;6.15;100.0
22775;BME280;11554;51.106;3.684;2022-09-21T02:05:00;102655.15000000001;;;6.07;100.0
22775;BME280;11554;51.106;3.684;2022-09-21T02:10:00;102652.09999999999;;;6.04;100.0
22775;BME280;11554;51.106;3.684;2022-09-21T02:15:00;102653.46999999999;;;5.99;100.0
22775;BME280;11554;51.106;3.684;2022-09-21T02:20:02;102653.76000000001;;;5.89;100.0
22775;BME280;11554;51.106;3.684;2022-09-21T02:25:03;102652.29;;;5.86;100.0
22775;BME280;11554;51.106;3.684;2022-09-21T02:30:02;102657.91999999998;;;5.82;100.0
22775;BME280;11554;51.106;3.684;2022-09-21T02:35:01;102659.39000000001;;;5.93;100.0
22775;BME280;11554;51.106;3.684;2022-09-21T02:40:01;102653.53;;;5.91;100.0
22775;BME280;11554;51.106;3.684;2022-09-21T02:45:05;102652.0;;;5.87;100.0
22775;BME280;11554;51.106;3.684;2022-09-21T02:50:00;102649.20999999999;;;6.05;100.0
22775;BME280;11554;51.106;3.684;2022-09-21T02:55:00;102646.19;;;5.97;100.0
22775;BME280;11554;51.106;3.684;2022-09-21T03:00:00;102647.93999999999;;;5.87;100.0
22775;BME280;11554;51.106;3.684;2022-09-21T03:05:00;102648.34000000001;;;5.75;100.0
22775;BME280;11554;51.106;3.684;2022-09-21T03:10:00;102656.01999999999;;;5.75;100.0
22775;BME280;11554;51.106;3.684;2022-09-21T03:15:00;102655.41;;;5.81;100.0
22775;BME280;11554;51.106;3.684;2022-09-21T03:20:00;102659.78;;;5.70;100.0
22775;BME280;11554;51.106;3.684;2022-09-21T03:25:00;102659.27999999998;;;5.62;100.0
22775;BME280;11554;51.106;3.684;2022-09-21T03:30:00;102660.21;;;5.57;100.0
22775;BME280;11554;51.106;3.684;2022-09-21T03:35:00;102662.40000000001;;;5.52;100.0
22775;BME280;11554;51.106;3.684;2022-09-21T03:40:00;102662.01000000001;;;5.55;100.0
22775;BME280;11554;51.106;3.684;2022-09-21T03:45:00;102667.23999999999;;;5.61;100.0
22775;BME280;11554;51.106;3.684;2022-09-21T03:50:00;102666.06;;;5.64;100.0
22775;BME280;11554;51.106;3.684;2022-09-21T03:55:00;102661.83000000002;;;5.55;100.0
22775;BME280;11554;51.106;3.684;2022-09-21T04:00:00;102659.44;;;5.63;100.0
22775;BME280;11554;51.106;3.684;2022-09-21T04:05:00;102655.87000000001;;;5.62;100.0
22775;BME280;11554;51.106;3.684;2022-09-21T04:10:00;102653.44;;;5.60;100.0
22775;BME280;11554;51.106;3.684;2022-09-21T04:15:00;102650.55;;;5.57;100.0
22775;BME280;11554;51.106;3.684;2022-09-21T04:20:00;102649.11;;;5.57;100.0
22775;BME280;11554;51.106;3.684;2022-09-21T04:25:00;102649.71;;;5.69;100.0
22775;BME280;11554;51.106;3.684;2022-09-21T04:30:00;102648.21999999999;;;5.48;100.0
22775;BME280;11554;51.106;3.684;2022-09-21T04:35:00;102649.84999999999;;;5.53;100.0
22775;BME280;11554;51.106;3.684;2022-09-21T04:40:00;102652.55;;;5.42;100.0
22775;BME280;11554;51.106;3.684;2022-09-21T04:45:00;102661.57;;;5.38;100.0
22775;BME280;11554;51.106;3.684;2022-09-21T04:50:00;102671.12999999999;;;5.24;100.0
22775;BME280;11554;51.106;3.684;2022-09-21T04:55:00;102672.11;;;5.31;100.0
22775;BME280;11554;51.106;3.684;2022-09-21T05:00:00;102667.93000000001;;;5.28;100.0
22775;BME280;11554;51.106;3.684;2022-09-21T05:05:00;102667.80000000002;;;5.27;100.0
22775;BME280;11554;51.106;3.684;2022-09-21T05:10:00;102668.46;;;5.22;100.0
22775;BME280;11554;51.106;3.684;2022-09-21T05:15:00;102668.48999999999;;;5.32;100.0
22775;BME280;11554;51.106;3.684;2022-09-21T05:20:00;102668.86;;;5.38;100.0
22775;BME280;11554;51.106;3.684;2022-09-21T05:25:00;102671.8;;;5.41;100.0
22775;BME280;11554;51.106;3.684;2022-09-21T05:30:00;102668.46;;;5.27;100.0
22775;BME280;11554;51.106;3.684;2022-09-21T05:35:02;102668.40999999999;;;5.25;100.0
22775;BME280;11554;51.106;3.684;2022-09-21T05:40:00;102668.93;;;5.27;100.0
22775;BME280;11554;51.106;3.684;2022-09-21T05:45:00;102671.67;;;5.32;100.0
22775;BME280;11554;51.106;3.684;2022-09-21T05:50:01;102673.49999999999;;;5.48;100.0
22775;BME280;11554;51.106;3.684;2022-09-21T05:55:02;102676.9;;;5.74;100.0
22775;BME280;11554;51.106;3.684;2022-09-21T06:00:02;102674.90000000001;;;5.92;100.0
22775;BME280;11554;51.106;3.684;2022-09-21T06:05:00;102681.24;;;5.94;100.0
22775;BME280;11554;51.106;3.684;2022-09-21T06:10:00;102679.06;;;6.06;100.0
22775;BME280;11554;51.106;3.684;2022-09-21T06:15:00;102682.5;;;6.05;100.0
22775;BME280;11554;51.106;3.684;2022-09-21T06:20:00;102678.65999999999;;;6.75;100.0
22775;BME280;11554;51.106;3.684;2022-09-21T06:25:00;102684.35999999999;;;7.73;100.0
22775;BME280;11554;51.106;3.684;2022-09-21T06:30:00;102686.06;;;8.36;100.0
22775;BME280;11554;51.106;3.684;2022-09-21T06:35:00;102687.77;;;8.70;100.0
22775;BME280;11554;51.106;3.684;2022-09-21T06:40:00;102690.11;;;8.85;100.0
22775;BME280;11554;51.106;3.684;2022-09-21T06:45:00;102692.32999999999;;;9.28;100.0
22775;BME280;11554;51.106;3.684;2022-09-21T06:50:00;102693.29000000001;;;9.27;100.0
22775;BME280;11554;51.106;3.684;2022-09-21T06:55:00;102689.72000000002;;;9.59;100.0
22775;BME280;11554;51.106;3.684;2022-09-21T07:00:00;102682.23000000001;;;10.33;100.0
22775;BME280;11554;51.106;3.684;2022-09-21T07:05:00;102685.06;;;10.72;100.0
22775;BME280;11554;51.106;3.684;2022-09-21T07:10:00;102687.62;;;11.55;100.0
22775;BME280;11554;51.106;3.684;2022-09-21T07:15:00;102683.99999999999;;;12.16;100.0
22775;BME280;11554;51.106;3.684;2022-09-21T07:20:00;102690.16999999998;;;12.81;100.0
22775;BME280;11554;51.106;3.684;2022-09-21T07:25:00;102695.81000000001;;;13.21;100.0
22775;BME280;11554;51.106;3.684;2022-09-21T07:30:00;102698.21999999999;;;13.14;100.0
22775;BME280;11554;51.106;3.684;2022-09-21T07:35:00;102697.13999999998;;;13.32;100.0
22775;BME280;11554;51.106;3.684;2022-09-21T07:40:00;102693.59999999999;;;13.74;100.0
22775;BME280;11554;51.106;3.684;2022-09-21T07:45:00;102686.1;;;14.28;100.0
22775;BME280;11554;51.106;3.684;2022-09-21T07:50:00;102687.82;;;14.64;100.0
22775;BME280;11554;51.106;3.684;2022-09-21T07:55:00;102691.75;;;15.01;100.0
22775;BME280;11554;51.106;3.684;2022-09-21T08:00:00;102690.66;;;15.29;100.0
22775;BME280;11554;51.106;3.684;2022-09-21T08:05:00;102692.37000000001;;;15.60;100.0
22775;BME280;11554;51.106;3.684;2022-09-21T08:10:00;102688.78;;;15.62;100.0
22775;BME280;11554;51.106;3.684;2022-09-21T08:15:00;102693.86;;;16.03;99.95
22775;BME280;11554;51.106;3.684;2022-09-21T08:25:00;102701.95000000001;;;16.12;94.63
22775;BME280;11554;51.106;3.684;2022-09-21T08:30:00;102701.65999999999;;;16.14;92.5
22775;BME280;11554;51.106;3.684;2022-09-21T08:35:00;102700.54000000001;;;16.60;90.67
22775;BME280;11554;51.106;3.684;2022-09-21T08:40:00;102703.45;;;16.03;85.74
22775;BME280;11554;51.106;3.684;2022-09-21T08:45:00;102708.41;;;16.16;85.93
22775;BME280;11554;51.106;3.684;2022-09-21T08:50:00;102708.7;;;16.33;84.82
22775;BME280;11554;51.106;3.684;2022-09-21T08:55:00;102705.47999999998;;;16.48;85.17
22775;BME280;11554;51.106;3.684;2022-09-21T09:00:00;102712.1;;;16.56;81.65
22775;BME280;11554;51.106;3.684;2022-09-21T09:05:01;102708.97;;;16.78;81.42
22775;BME280;11554;51.106;3.684;2022-09-21T09:10:02;102707.98;;;16.95;81.37
22775;BME280;11554;51.106;3.684;2022-09-21T09:20:00;102710.88;;;17.36;81.75
22775;BME280;11554;51.106;3.684;2022-09-21T09:25:01;102714.31;;;17.61;82.0
22775;BME280;11554;51.106;3.684;2022-09-21T09:30:00;102711.78;;;17.72;79.28
22775;BME280;11554;51.106;3.684;2022-09-21T09:35:01;102704.61;;;18.04;78.15
22775;BME280;11554;51.106;3.684;2022-09-21T09:40:00;102704.56999999999;;;18.15;77.61
22775;BME280;11554;51.106;3.684;2022-09-21T09:45:04;102704.81;;;18.26;72.93
22775;BME280;11554;51.106;3.684;2022-09-21T09:50:02;102703.50000000001;;;18.40;76.62
22775;BME280;11554;51.106;3.684;2022-09-21T09:55:00;102702.14000000001;;;18.77;76.35
22775;BME280;11554;51.106;3.684;2022-09-21T10:00:01;102697.47;;;18.58;71.72
22775;BME280;11554;51.106;3.684;2022-09-21T10:05:00;102695.91;;;18.48;71.47
22775;BME280;11554;51.106;3.684;2022-09-21T10:10:00;102690.88999999998;;;19.00;73.01
22775;BME280;11554;51.106;3.684;2022-09-21T10:15:00;102690.42;;;19.25;70.11
22775;BME280;11554;51.106;3.684;2022-09-21T10:20:00;102690.81000000001;;;19.11;68.99
22775;BME280;11554;51.106;3.684;2022-09-21T10:25:00;102691.95999999999;;;18.72;68.28
22775;BME280;11554;51.106;3.684;2022-09-21T10:30:00;102696.06000000001;;;19.14;71.94
22775;BME280;11554;51.106;3.684;2022-09-21T10:35:10;102695.12999999999;;;19.86;70.64
22775;BME280;11554;51.106;3.684;2022-09-21T10:40:00;102690.77;;;20.16;67.46
22775;BME280;11554;51.106;3.684;2022-09-21T10:45:04;102689.22;;;20.53;66.52
22775;BME280;11554;51.106;3.684;2022-09-21T10:50:00;102698.90000000001;;;21.23;65.75
22775;BME280;11554;51.106;3.684;2022-09-21T10:55:00;102683.76000000001;;;21.97;69.9
22775;BME280;11554;51.106;3.684;2022-09-21T11:00:09;102690.58;;;21.23;61.43
22775;BME280;11554;51.106;3.684;2022-09-21T11:05:02;102688.64000000001;;;20.40;63.27
22775;BME280;11554;51.106;3.684;2022-09-21T11:10:02;102683.17;;;19.45;62.13
22775;BME280;11554;51.106;3.684;2022-09-21T11:15:02;102681.21;;;19.63;62.21
22775;BME280;11554;51.106;3.684;2022-09-21T11:20:03;102681.31000000001;;;19.90;63.05
22775;BME280;11554;51.106;3.684;2022-09-21T11:25:01;102675.20999999999;;;19.60;62.32
22775;BME280;11554;51.106;3.684;2022-09-21T11:30:00;102670.3;;;19.31;62.65
22775;BME280;11554;51.106;3.684;2022-09-21T11:35:05;102664.28000000001;;;18.80;61.19
22775;BME280;11554;51.106;3.684;2022-09-21T11:40:06;102664.21;;;19.48;62.32
22775;BME280;11554;51.106;3.684;2022-09-21T11:45:00;102662.34;;;19.38;61.13
22775;BME280;11554;51.106;3.684;2022-09-21T11:50:04;102659.03000000001;;;18.83;62.58
22775;BME280;11554;51.106;3.684;2022-09-21T11:55:04;102656.70999999999;;;18.69;61.55
22775;BME280;11554;51.106;3.684;2022-09-21T12:00:04;102654.17;;;18.37;64.23
22775;BME280;11554;51.106;3.684;2022-09-21T12:05:01;102655.14;;;18.87;62.31
22775;BME280;11554;51.106;3.684;2022-09-21T12:10:03;102650.71;;;19.49;61.67
22775;BME280;11554;51.106;3.684;2022-09-21T12:15:01;102648.16;;;19.93;60.08
22775;BME280;11554;51.106;3.684;2022-09-21T12:20:02;102640.83;;;20.32;58.96
22775;BME280;11554;51.106;3.684;2022-09-21T12:25:01;102639.98999999999;;;19.92;59.57
22775;BME280;11554;51.106;3.684;2022-09-21T12:30:01;102639.14;;;18.95;62.07
22775;BME280;11554;51.106;3.684;2022-09-21T12:35:01;102637.01000000001;;;18.56;63.71
22775;BME280;11554;51.106;3.684;2022-09-21T12:40:05;102631.14;;;18.47;63.84
22775;BME280;11554;51.106;3.684;2022-09-21T12:45:01;102623.28;;;19.64;63.77
22775;BME280;11554;51.106;3.684;2022-09-21T12:50:01;102620.43000000001;;;19.96;61.03
22775;BME280;11554;51.106;3.684;2022-09-21T12:55:07;102619.56999999999;;;20.59;57.85
22775;BME280;11554;51.106;3.684;2022-09-21T13:00:02;102616.35;;;19.29;60.82
22775;BME280;11554;51.106;3.684;2022-09-21T13:05:03;102608.57;;;19.11;61.68
22775;BME280;11554;51.106;3.684;2022-09-21T13:10:00;102605.81999999999;;;19.07;61.98
22775;BME280;11554;51.106;3.684;2022-09-21T13:15:01;102601.06000000001;;;20.00;59.46
22775;BME280;11554;51.106;3.684;2022-09-21T13:20:01;102598.25;;;19.63;59.43
22775;BME280;11554;51.106;3.684;2022-09-21T13:25:01;102598.78000000001;;;20.23;58.26
22775;BME280;11554;51.106;3.684;2022-09-21T13:45:00;102576.6;;;21.80;59.69
22775;BME280;11554;51.106;3.684;2022-09-21T13:50:00;102568.4;;;22.42;58.14
22775;BME280;11554;51.106;3.684;2022-09-21T13:55:00;102558.47000000002;;;21.79;55.96
22775;BME280;11554;51.106;3.684;2022-09-21T14:00:04;102569.59999999999;;;20.08;58.38
22775;BME280;11554;51.106;3.684;2022-09-21T14:05:02;102565.22;;;19.42;59.47
22775;BME280;11554;51.106;3.684;2022-09-21T14:10:00;102560.17;;;20.54;60.13
22775;BME280;11554;51.106;3.684;2022-09-21T14:15:09;102557.6;;;20.32;58.06
22775;BME280;11554;51.106;3.684;2022-09-21T14:20:00;102554.38999999998;;;20.27;56.15
22775;BME280;11554;51.106;3.684;2022-09-21T14:30:00;102551.42000000001;;;20.68;56.48
22775;BME280;11554;51.106;3.684;2022-09-21T14:35:08;102543.01000000001;;;20.89;57.98
22775;BME280;11554;51.106;3.684;2022-09-21T14:40:02;102541.51999999999;;;20.73;56.01
22775;BME280;11554;51.106;3.684;2022-09-21T14:45:00;102540.48;;;20.28;56.92
22775;BME280;11554;51.106;3.684;2022-09-21T14:50:07;102536.3;;;20.11;57.42
22775;BME280;11554;51.106;3.684;2022-09-21T14:55:03;102534.62;;;19.95;59.11
22775;BME280;11554;51.106;3.684;2022-09-21T15:00:05;102523.91;;;19.13;59.92
22775;BME280;11554;51.106;3.684;2022-09-21T15:05:03;102523.4;;;18.82;61.12
22775;BME280;11554;51.106;3.684;2022-09-21T15:10:04;102524.17;;;18.63;61.13
22775;BME280;11554;51.106;3.684;2022-09-21T15:15:02;102515.59;;;18.49;61.77
22775;BME280;11554;51.106;3.684;2022-09-21T15:20:13;102509.73;;;19.59;62.39
22775;BME280;11554;51.106;3.684;2022-09-21T15:25:01;102506.65;;;19.76;58.59
22775;BME280;11554;51.106;3.684;2022-09-21T15:30:01;102502.37;;;19.78;58.79
22775;BME280;11554;51.106;3.684;2022-09-21T15:35:00;102498.71;;;19.68;59.24
22775;BME280;11554;51.106;3.684;2022-09-21T15:40:00;102501.44;;;19.70;59.39
22775;BME280;11554;51.106;3.684;2022-09-21T15:45:13;102497.34000000001;;;19.35;57.5
22775;BME280;11554;51.106;3.684;2022-09-21T15:50:00;102503.22000000002;;;18.64;59.23
22775;BME280;11554;51.106;3.684;2022-09-21T15:55:00;102500.06000000001;;;18.14;60.55
22775;BME280;11554;51.106;3.684;2022-09-21T16:00:00;102499.26000000001;;;17.77;61.8
22775;BME280;11554;51.106;3.684;2022-09-21T16:05:00;102496.32999999999;;;17.72;62.34
22775;BME280;11554;51.106;3.684;2022-09-21T16:10:00;102487.95;;;18.14;62.46
22775;BME280;11554;51.106;3.684;2022-09-21T16:15:00;102485.17;;;18.14;61.75
22775;BME280;11554;51.106;3.684;2022-09-21T16:25:00;102481.49;;;17.75;63.55
22775;BME280;11554;51.106;3.684;2022-09-21T16:30:00;102476.21999999999;;;17.36;63.24
22775;BME280;11554;51.106;3.684;2022-09-21T16:40:00;102484.16;;;16.99;65.69
22775;BME280;11554;51.106;3.684;2022-09-21T16:45:00;102487.40000000001;;;16.94;65.31
22775;BME280;11554;51.106;3.684;2022-09-21T16:50:00;102484.66;;;16.76;67.17
22775;BME280;11554;51.106;3.684;2022-09-21T16:55:00;102481.9;;;16.62;67.93
22775;BME280;11554;51.106;3.684;2022-09-21T17:00:00;102482.79;;;16.45;69.23
22775;BME280;11554;51.106;3.684;2022-09-21T17:05:00;102486.66;;;16.26;69.88
22775;BME280;11554;51.106;3.684;2022-09-21T17:10:00;102488.77;;;16.06;70.28
22775;BME280;11554;51.106;3.684;2022-09-21T17:15:00;102485.18999999999;;;15.84;70.88
22775;BME280;11554;51.106;3.684;2022-09-21T17:20:01;102490.24999999999;;;15.61;72.38
22775;BME280;11554;51.106;3.684;2022-09-21T17:25:00;102489.52999999998;;;15.35;72.6
22775;BME280;11554;51.106;3.684;2022-09-21T17:30:00;102493.92;;;15.09;73.38
22775;BME280;11554;51.106;3.684;2022-09-21T17:35:08;102493.98000000001;;;14.82;73.91
22775;BME280;11554;51.106;3.684;2022-09-21T17:40:00;102500.09;;;14.54;75.41
22775;BME280;11554;51.106;3.684;2022-09-21T17:45:04;102499.98000000001;;;14.25;75.34
22775;BME280;11554;51.106;3.684;2022-09-21T17:50:01;102501.34000000001;;;13.99;77.27
22775;BME280;11554;51.106;3.684;2022-09-21T17:55:00;102504.5;;;13.78;77.61
22775;BME280;11554;51.106;3.684;2022-09-21T18:00:01;102503.25;;;13.50;78.21
22775;BME280;11554;51.106;3.684;2022-09-21T18:05:01;102505.7;;;13.20;78.85
22775;BME280;11554;51.106;3.684;2022-09-21T18:10:00;102508.15;;;12.91;79.05
22775;BME280;11554;51.106;3.684;2022-09-21T18:15:02;102513.59;;;12.72;80.85
22775;BME280;11554;51.106;3.684;2022-09-21T18:20:09;102516.14;;;12.52;82.08
22775;BME280;11554;51.106;3.684;2022-09-21T18:25:00;102520.1;;;12.49;82.16
22775;BME280;11554;51.106;3.684;2022-09-21T18:30:00;102519.63;;;12.45;83.62
22775;BME280;11554;51.106;3.684;2022-09-21T18:35:10;102520.75;;;12.30;83.51
22775;BME280;11554;51.106;3.684;2022-09-21T18:40:02;102518.63;;;12.12;83.75
22775;BME280;11554;51.106;3.684;2022-09-21T18:45:01;102519.20999999999;;;11.95;83.95
22775;BME280;11554;51.106;3.684;2022-09-21T18:50:01;102520.19;;;11.81;85.07
22775;BME280;11554;51.106;3.684;2022-09-21T18:55:00;102521.91;;;11.89;87.29
22775;BME280;11554;51.106;3.684;2022-09-21T19:00:00;102527.48;;;11.89;87.91
22775;BME280;11554;51.106;3.684;2022-09-21T19:05:00;102524.45;;;11.66;87.08
22775;BME280;11554;51.106;3.684;2022-09-21T19:10:02;102528.09;;;11.41;86.35
22775;BME280;11554;51.106;3.684;2022-09-21T19:15:03;102523.28;;;11.35;89.27
22775;BME280;11554;51.106;3.684;2022-09-21T19:20:02;102522.84999999999;;;11.25;89.36
22775;BME280;11554;51.106;3.684;2022-09-21T19:25:02;102527.12;;;11.21;90.41
22775;BME280;11554;51.106;3.684;2022-09-21T19:30:03;102528.56;;;11.07;90.01
22775;BME280;11554;51.106;3.684;2022-09-21T19:35:00;102527.34;;;11.13;92.03
22775;BME280;11554;51.106;3.684;2022-09-21T19:40:00;102529.26;;;11.00;91.48
22775;BME280;11554;51.106;3.684;2022-09-21T19:45:03;102533.20000000001;;;10.81;91.8
22775;BME280;11554;51.106;3.684;2022-09-21T19:50:03;102535.45;;;10.59;90.77
22775;BME280;11554;51.106;3.684;2022-09-21T19:55:00;102536.49;;;10.35;90.8
22775;BME280;11554;51.106;3.684;2022-09-21T20:00:00;102530.47999999998;;;10.16;90.15
22775;BME280;11554;51.106;3.684;2022-09-21T20:05:00;102529.37;;;10.11;92.49
22775;BME280;11554;51.106;3.684;2022-09-21T20:10:05;102527.69;;;9.94;92.05
22775;BME280;11554;51.106;3.684;2022-09-21T20:15:00;102522.21999999999;;;9.80;92.88
22775;BME280;11554;51.106;3.684;2022-09-21T20:20:01;102524.73999999999;;;9.70;94.17
22775;BME280;11554;51.106;3.684;2022-09-21T20:25:01;102525.27;;;9.57;93.91
22775;BME280;11554;51.106;3.684;2022-09-21T20:30:00;102524.37999999999;;;9.45;93.37
22775;BME280;11554;51.106;3.684;2022-09-21T20:35:00;102528.87000000001;;;9.38;93.93
22775;BME280;11554;51.106;3.684;2022-09-21T20:40:00;102526.27;;;9.29;94.65
22775;BME280;11554;51.106;3.684;2022-09-21T20:45:00;102525.32;;;9.15;93.92
22775;BME280;11554;51.106;3.684;2022-09-21T20:50:00;102523.71;;;9.09;94.9
22775;BME280;11554;51.106;3.684;2022-09-21T20:55:00;102523.72;;;8.98;94.71
22775;BME280;11554;51.106;3.684;2022-09-21T21:00:00;102514.9;;;8.95;96.07
22775;BME280;11554;51.106;3.684;2022-09-21T21:05:00;102516.13;;;8.85;96.21
22775;BME280;11554;51.106;3.684;2022-09-21T21:10:00;102511.95;;;8.71;94.97
22775;BME280;11554;51.106;3.684;2022-09-21T21:15:00;102508.47000000002;;;8.63;95.85
22775;BME280;11554;51.106;3.684;2022-09-21T21:20:00;102512.84000000001;;;8.58;95.75
22775;BME280;11554;51.106;3.684;2022-09-21T21:25:00;102514.21;;;8.45;95.32
22775;BME280;11554;51.106;3.684;2022-09-21T21:30:00;102508.56000000001;;;8.44;96.58
22775;BME280;11554;51.106;3.684;2022-09-21T21:35:00;102504.33;;;8.33;95.34
22775;BME280;11554;51.106;3.684;2022-09-21T21:40:00;102507.89;;;8.27;95.86
22775;BME280;11554;51.106;3.684;2022-09-21T21:45:00;102509.94;;;8.17;95.57
22775;BME280;11554;51.106;3.684;2022-09-21T21:50:00;102508.25;;;8.14;96.41
22775;BME280;11554;51.106;3.684;2022-09-21T21:55:00;102505.96;;;8.08;96.57
22775;BME280;11554;51.106;3.684;2022-09-21T22:00:00;102503.81;;;7.97;95.5
22775;BME280;11554;51.106;3.684;2022-09-21T22:05:00;102502.29;;;7.90;96.05
22775;BME280;11554;51.106;3.684;2022-09-21T22:10:00;102508.03000000001;;;7.83;95.56
22775;BME280;11554;51.106;3.684;2022-09-21T22:15:00;102507.06999999999;;;7.79;96.88
22775;BME280;11554;51.106;3.684;2022-09-21T22:20:00;102506.53;;;7.80;99.23
22775;BME280;11554;51.106;3.684;2022-09-21T22:25:00;102504.04000000001;;;7.84;100.0
22775;BME280;11554;51.106;3.684;2022-09-21T22:30:00;102501.37999999999;;;7.65;98.43
22775;BME280;11554;51.106;3.684;2022-09-21T22:35:00;102498.97;;;7.57;98.78
22775;BME280;11554;51.106;3.684;2022-09-21T22:40:00;102500.24;;;7.49;97.92
22775;BME280;11554;51.106;3.684;2022-09-21T22:45:00;102503.92;;;7.45;98.88
22775;BME280;11554;51.106;3.684;2022-09-21T22:50:00;102501.05;;;7.42;99.92
22775;BME280;11554;51.106;3.684;2022-09-21T22:55:00;102494.74;;;7.38;100.0
22775;BME280;11554;51.106;3.684;2022-09-21T23:00:00;102490.20000000001;;;7.31;100.0
22775;BME280;11554;51.106;3.684;2022-09-21T23:05:00;102489.15999999999;;;7.28;100.0
22775;BME280;11554;51.106;3.684;2022-09-21T23:10:00;102493.51999999999;;;7.21;100.0
22775;BME280;11554;51.106;3.684;2022-09-21T23:15:00;102485.63999999998;;;7.20;100.0
22775;BME280;11554;51.106;3.684;2022-09-21T23:20:00;102486.07999999999;;;7.07;99.84
22775;BME280;11554;51.106;3.684;2022-09-21T23:25:00;102486.43;;;7.03;100.0
22775;BME280;11554;51.106;3.684;2022-09-21T23:30:00;102481.42;;;6.93;100.0
22775;BME280;11554;51.106;3.684;2022-09-21T23:35:00;102473.97;;;6.89;100.0
22775;BME280;11554;51.106;3.684;2022-09-21T23:40:00;102467.54000000001;;;6.98;100.0
22775;BME280;11554;51.106;3.684;2022-09-21T23:45:00;102462.06999999999;;;7.06;100.0
22775;BME280;11554;51.106;3.684;2022-09-21T23:50:00;102457.62999999999;;;6.89;100.0
22775;BME280;11554;51.106;3.684;2022-09-21T23:55:00;102458.94;;;6.72;100.0
